createdAt,value
2018-06-15T00:00:59.479Z,5.42
2018-06-15T00:03:27.647Z,5.07
2018-06-15T00:05:55.856Z,5.20
2018-06-15T00:08:25.059Z,6.20
2018-06-15T00:10:53.331Z,6.17
2018-06-15T00:13:21.397Z,6.50
2018-06-15T00:15:49.803Z,5.10
2018-06-15T00:18:18.050Z,4.80
2018-06-15T00:20:46.190Z,5.60
2018-06-15T00:23:14.347Z,5.65
2018-06-15T00:25:42.426Z,6.83
2018-06-15T00:28:10.521Z,5.77
2018-06-15T00:30:38.738Z,5.63
2018-06-15T00:33:06.933Z,6.22
2018-06-15T00:35:35.345Z,5.60
2018-06-15T00:38:03.543Z,5.17
2018-06-15T00:40:31.841Z,5.05
2018-06-15T00:43:00.097Z,6.80
2018-06-15T00:45:28.271Z,5.37
2018-06-15T00:47:58.414Z,6.17
2018-06-15T00:50:26.717Z,5.87
2018-06-15T00:52:54.774Z,5.90
2018-06-15T00:55:23.909Z,5.30
2018-06-15T00:57:51.980Z,5.87
2018-06-15T01:00:20.060Z,6.00
2018-06-15T01:02:48.343Z,5.40
2018-06-15T01:05:16.549Z,5.70
2018-06-15T01:07:44.656Z,5.50
2018-06-15T01:10:12.803Z,6.60
2018-06-15T01:12:40.836Z,5.07
2018-06-15T01:15:10.031Z,5.75
2018-06-15T01:17:38.552Z,6.13
2018-06-15T01:20:06.652Z,6.30
2018-06-15T01:22:34.725Z,5.72
2018-06-15T01:25:03.110Z,5.87
2018-06-15T01:27:31.232Z,6.08
2018-06-15T01:29:59.296Z,7.58
2018-06-15T01:32:27.391Z,6.45
2018-06-15T01:34:55.452Z,6.93
2018-06-15T01:37:23.579Z,7.10
2018-06-15T01:39:51.912Z,6.70
2018-06-15T01:42:20.060Z,7.80
2018-06-15T01:44:48.265Z,7.50
2018-06-15T01:47:16.332Z,7.07
2018-06-15T01:49:44.447Z,7.17
2018-06-15T01:52:13.523Z,7.07
2018-06-15T01:54:41.645Z,6.90
2018-06-15T01:57:09.885Z,6.33
2018-06-15T01:59:38.004Z,6.40
2018-06-15T02:02:06.154Z,5.95
2018-06-15T02:04:34.348Z,6.90
2018-06-15T02:07:02.470Z,6.05
2018-06-15T02:09:30.564Z,6.83
2018-06-15T02:11:58.838Z,6.53
2018-06-15T02:14:30.921Z,9.17
2018-06-15T02:17:10.943Z,6.22
2018-06-15T02:19:39.719Z,6.13
2018-06-15T02:22:07.923Z,6.55
2018-06-15T02:24:36.152Z,6.60
2018-06-15T02:27:04.416Z,6.90
2018-06-15T02:29:32.655Z,6.13
2018-06-15T02:32:00.727Z,7.13
2018-06-15T02:34:29.143Z,6.03
2018-06-15T02:36:57.268Z,6.55
2018-06-15T02:39:25.369Z,6.57
2018-06-15T02:41:53.599Z,7.03
2018-06-15T02:44:22.249Z,6.87
2018-06-15T02:46:51.414Z,5.97
2018-06-15T02:49:19.668Z,5.83
2018-06-15T02:51:47.823Z,6.80
2018-06-15T02:54:16.255Z,6.50
2018-06-15T02:56:44.564Z,6.17
2018-06-15T02:59:13.638Z,6.47
2018-06-15T03:01:41.750Z,6.50
2018-06-15T03:04:09.955Z,6.60
2018-06-15T03:06:38.095Z,7.07
2018-06-15T03:09:06.494Z,7.10
2018-06-15T03:11:34.676Z,6.50
2018-06-15T03:14:02.742Z,6.20
2018-06-15T03:16:31.008Z,7.60
2018-06-15T03:18:59.225Z,6.37
2018-06-15T03:21:27.356Z,6.83
2018-06-15T03:23:55.810Z,6.37
2018-06-15T03:26:24.033Z,6.20
2018-06-15T03:28:52.930Z,6.80
2018-06-15T03:31:21.652Z,6.53
2018-06-15T03:33:50.266Z,6.60
2018-06-15T03:36:18.568Z,7.53
2018-06-15T03:38:46.686Z,6.50
2018-06-15T03:41:14.910Z,6.90
2018-06-15T03:43:43.052Z,7.03
2018-06-15T03:46:11.172Z,7.90
2018-06-15T03:48:39.378Z,6.60
2018-06-15T03:51:07.463Z,6.40
2018-06-15T03:53:35.671Z,6.28
2018-06-15T03:56:03.792Z,7.17
2018-06-15T03:58:32.086Z,6.77
2018-06-15T04:01:00.204Z,6.50
2018-06-15T04:03:28.296Z,6.00
2018-06-15T04:05:56.829Z,6.05
2018-06-15T04:08:25.135Z,6.97
2018-06-15T04:10:53.271Z,8.57
2018-06-15T04:13:21.389Z,7.70
2018-06-15T04:15:49.646Z,7.40
2018-06-15T04:18:17.764Z,7.17
2018-06-15T04:20:46.137Z,7.43
2018-06-15T04:23:14.317Z,7.70
2018-06-15T04:25:42.400Z,8.00
2018-06-15T04:28:10.637Z,7.47
2018-06-15T04:30:38.944Z,7.23
2018-06-15T04:33:07.086Z,8.50
2018-06-15T04:35:35.310Z,7.00
2018-06-15T04:38:03.498Z,7.53
2018-06-15T04:40:31.638Z,8.20
2018-06-15T04:42:59.796Z,9.37
2018-06-15T04:45:28.775Z,9.10
2018-06-15T04:47:56.919Z,8.47
2018-06-15T04:50:25.036Z,7.73
2018-06-15T04:52:53.428Z,8.13
2018-06-15T04:55:21.568Z,7.57
2018-06-15T04:57:49.657Z,9.00
2018-06-15T05:00:17.781Z,8.97
2018-06-15T05:02:46.006Z,7.93
2018-06-15T05:05:14.104Z,7.93
2018-06-15T05:07:42.415Z,8.43
2018-06-15T05:10:10.528Z,9.03
2018-06-15T05:12:38.703Z,9.38
2018-06-15T05:15:06.831Z,9.30
2018-06-15T05:17:35.094Z,9.13
2018-06-15T05:20:03.267Z,8.90
2018-06-15T05:22:31.585Z,9.15
2018-06-15T05:25:00.109Z,9.30
2018-06-15T05:27:28.293Z,9.07
2018-06-15T05:29:56.459Z,8.17
2018-06-15T05:32:24.562Z,8.87
2018-06-15T05:34:52.954Z,8.70
2018-06-15T05:37:21.179Z,8.30
2018-06-15T05:39:49.462Z,8.43
2018-06-15T05:42:17.618Z,9.57
2018-06-15T05:44:45.810Z,8.70
2018-06-15T05:47:13.943Z,8.37
2018-06-15T05:49:42.036Z,8.80
2018-06-15T05:52:10.211Z,9.05
2018-06-15T05:54:38.436Z,9.80
2018-06-15T05:57:06.995Z,9.83
2018-06-15T05:59:35.939Z,10.70
2018-06-15T06:02:04.208Z,10.10
2018-06-15T06:04:33.062Z,9.20
2018-06-15T06:07:01.391Z,9.30
2018-06-15T06:09:29.692Z,8.10
2018-06-15T06:11:57.784Z,8.33
2018-06-15T06:14:26.044Z,8.17
2018-06-15T06:16:54.319Z,7.80
2018-06-15T06:19:23.284Z,7.08
2018-06-15T06:21:51.381Z,8.33
2018-06-15T06:24:19.778Z,9.10
2018-06-15T06:26:48.008Z,9.20
2018-06-15T06:29:16.324Z,8.70
2018-06-15T06:31:44.659Z,9.70
2018-06-15T06:34:12.750Z,22.00
2018-06-15T06:36:40.939Z,26.35
2018-06-15T06:39:11.368Z,9.50
2018-06-15T06:41:39.734Z,8.63
2018-06-15T06:44:08.016Z,9.10
2018-06-15T06:46:36.387Z,9.45
2018-06-15T06:49:04.671Z,8.18
2018-06-15T06:51:32.849Z,9.20
2018-06-15T06:54:01.091Z,8.25
2018-06-15T06:56:29.232Z,9.00
2018-06-15T06:58:57.495Z,7.30
2018-06-15T07:01:25.636Z,9.10
2018-06-15T07:03:53.771Z,8.00
2018-06-15T07:06:21.970Z,8.13
2018-06-15T07:08:50.091Z,8.90
2018-06-15T07:11:18.669Z,8.40
2018-06-15T07:13:46.780Z,8.80
2018-06-15T07:16:15.030Z,8.03
2018-06-15T07:18:43.209Z,7.20
2018-06-15T07:21:11.401Z,8.85
2018-06-15T07:23:39.590Z,8.87
2018-06-15T07:26:07.667Z,9.00
2018-06-15T07:28:36.417Z,9.10
2018-06-15T07:31:04.555Z,8.10
2018-06-15T07:33:32.788Z,7.90
2018-06-15T07:36:00.860Z,10.43
2018-06-15T07:38:29.194Z,8.73
2018-06-15T07:40:57.317Z,9.50
2018-06-15T07:43:25.459Z,8.50
2018-06-15T07:45:53.631Z,7.30
2018-06-15T07:48:22.024Z,7.43
2018-06-15T07:50:50.131Z,8.33
2018-06-15T07:53:18.202Z,7.50
2018-06-15T07:55:46.511Z,8.27
2018-06-15T07:58:14.636Z,8.60
2018-06-15T08:00:42.820Z,8.60
2018-06-15T08:03:11.323Z,7.53
2018-06-15T08:05:39.423Z,7.27
2018-06-15T08:08:07.534Z,4.85
2018-06-15T08:10:36.876Z,4.93
2018-06-15T08:13:05.070Z,5.20
2018-06-15T08:15:34.371Z,9.60
2018-06-15T08:18:04.976Z,5.27
2018-06-15T08:20:33.056Z,4.42
2018-06-15T08:23:01.107Z,5.43
2018-06-15T08:25:29.214Z,4.45
2018-06-15T08:27:57.271Z,5.60
2018-06-15T08:30:25.333Z,5.37
2018-06-15T08:32:54.453Z,4.70
2018-06-15T08:35:29.821Z,4.87
2018-06-15T08:38:00.018Z,4.23
2018-06-15T08:40:42.574Z,4.40
2018-06-15T08:43:11.452Z,4.95
2018-06-15T08:45:39.753Z,4.17
2018-06-15T08:48:07.891Z,4.40
2018-06-15T08:50:36.063Z,4.73
2018-06-15T08:53:04.207Z,4.50
2018-06-15T08:55:32.616Z,4.07
2018-06-15T08:58:00.758Z,3.92
2018-06-15T09:00:29.009Z,4.00
2018-06-15T09:02:57.263Z,4.43
2018-06-15T09:05:26.052Z,4.50
2018-06-15T09:07:54.355Z,4.60
2018-06-15T09:10:22.919Z,4.33
2018-06-15T09:12:50.999Z,3.73
2018-06-15T09:15:19.155Z,4.10
2018-06-15T09:17:47.254Z,4.77
2018-06-15T09:20:15.557Z,4.37
2018-06-15T09:22:43.659Z,4.00
2018-06-15T09:25:11.772Z,5.50
2018-06-15T09:27:40.028Z,3.95
2018-06-15T09:30:08.250Z,4.17
2018-06-15T09:32:36.777Z,4.03
2018-06-15T09:35:05.157Z,4.50
2018-06-15T09:37:33.234Z,3.90
2018-06-15T09:40:01.316Z,5.12
2018-06-15T09:42:29.579Z,3.90
2018-06-15T09:44:58.275Z,6.03
2018-06-15T09:47:26.445Z,3.60
2018-06-15T09:49:54.763Z,4.07
2018-06-15T09:52:23.012Z,3.30
2018-06-15T09:54:51.148Z,3.50
2018-06-15T09:57:19.259Z,3.53
2018-06-15T09:59:47.535Z,3.70
2018-06-15T10:02:15.695Z,3.47
2018-06-15T10:04:43.863Z,3.17
2018-06-15T10:07:12.056Z,3.52
2018-06-15T10:09:40.247Z,3.63
2018-06-15T10:12:08.412Z,3.55
2018-06-15T10:14:36.647Z,3.40
2018-06-15T10:17:05.097Z,3.20
2018-06-15T10:19:34.390Z,4.30
2018-06-15T10:22:04.343Z,3.58
2018-06-15T10:24:32.453Z,5.23
2018-06-15T10:27:00.607Z,3.40
2018-06-15T10:29:28.755Z,3.50
2018-06-15T10:31:57.044Z,3.00
2018-06-15T10:34:25.234Z,3.20
2018-06-15T10:36:54.495Z,3.30
2018-06-15T10:39:23.506Z,3.63
2018-06-15T10:41:51.606Z,3.80
2018-06-15T10:44:19.699Z,3.70
2018-06-15T10:46:47.833Z,3.67
2018-06-15T10:49:16.086Z,4.13
2018-06-15T10:51:44.242Z,4.27
2018-06-15T10:54:12.311Z,3.90
2018-06-15T10:56:41.603Z,3.98
2018-06-15T10:59:09.775Z,5.07
2018-06-15T11:01:38.448Z,3.73
2018-06-15T11:04:06.532Z,4.62
2018-06-15T11:06:34.617Z,4.07
2018-06-15T11:09:02.839Z,3.73
2018-06-15T11:11:31.065Z,5.63
2018-06-15T11:13:59.883Z,4.45
2018-06-15T11:16:28.007Z,3.60
2018-06-15T11:18:56.244Z,5.03
2018-06-15T11:21:24.607Z,4.42
2018-06-15T11:23:52.656Z,6.43
2018-06-15T11:26:20.718Z,6.43
2018-06-15T11:28:48.830Z,4.07
2018-06-15T11:31:17.136Z,3.87
2018-06-15T11:33:45.399Z,4.13
2018-06-15T11:36:13.498Z,4.00
2018-06-15T11:38:42.617Z,4.17
2018-06-15T11:41:11.037Z,3.80
2018-06-15T11:43:39.055Z,3.43
2018-06-15T11:46:08.215Z,3.87
2018-06-15T11:48:36.678Z,4.50
2018-06-15T11:51:04.770Z,3.57
2018-06-15T11:53:32.866Z,3.90
2018-06-15T11:56:01.011Z,3.57
2018-06-15T11:58:29.154Z,6.12
2018-06-15T12:00:57.744Z,4.53
2018-06-15T12:03:25.868Z,5.77
2018-06-15T12:05:54.949Z,4.77
2018-06-15T12:08:23.123Z,13.63
2018-06-15T12:10:51.219Z,8.37
2018-06-15T12:13:19.455Z,5.00
2018-06-15T12:15:47.704Z,4.40
2018-06-15T12:18:15.878Z,4.07
2018-06-15T12:20:44.163Z,4.47
2018-06-15T12:23:12.319Z,4.50
2018-06-15T12:25:40.749Z,4.22
2018-06-15T12:28:08.978Z,4.60
2018-06-15T12:30:37.261Z,4.07
2018-06-15T12:33:05.517Z,8.15
2018-06-15T12:35:33.980Z,4.53
2018-06-15T12:38:02.142Z,4.80
2018-06-15T12:40:30.241Z,4.35
2018-06-15T12:42:58.647Z,6.43
2018-06-15T12:45:26.831Z,5.03
2018-06-15T12:47:55.147Z,5.27
2018-06-15T12:50:23.767Z,5.13
2018-06-15T12:52:52.100Z,4.27
2018-06-15T12:55:20.425Z,4.20
2018-06-15T12:57:48.657Z,4.10
2018-06-15T13:00:16.814Z,5.07
2018-06-15T13:02:44.885Z,4.27
2018-06-15T13:05:13.160Z,4.30
2018-06-15T13:07:41.267Z,4.27
2018-06-15T13:10:09.394Z,3.75
2018-06-15T13:12:37.556Z,4.50
2018-06-15T13:15:05.723Z,4.93
2018-06-15T13:17:33.939Z,4.80
2018-06-15T13:20:02.107Z,4.30
2018-06-15T13:22:30.174Z,4.70
2018-06-15T13:24:58.474Z,5.80
2018-06-15T13:27:26.588Z,5.47
2018-06-15T13:29:55.648Z,4.10
2018-06-15T13:32:24.489Z,4.10
2018-06-15T13:34:52.608Z,4.60
2018-06-15T13:37:20.744Z,4.60
2018-06-15T13:39:48.926Z,5.00
2018-06-15T13:42:17.085Z,4.57
2018-06-15T13:44:45.277Z,7.17
2018-06-15T13:47:13.467Z,5.17
2018-06-15T13:49:41.583Z,5.13
2018-06-15T13:52:09.847Z,4.63
2018-06-15T13:54:38.043Z,4.35
2018-06-15T13:57:06.133Z,5.25
2018-06-15T13:59:34.243Z,6.83
2018-06-15T14:02:02.344Z,4.60
2018-06-15T14:04:30.450Z,4.63
2018-06-15T14:06:59.785Z,4.40
2018-06-15T14:09:27.997Z,4.10
2018-06-15T14:11:56.127Z,4.47
2018-06-15T14:14:24.277Z,4.07
2018-06-15T14:16:53.225Z,4.00
2018-06-15T14:19:22.093Z,5.73
2018-06-15T14:21:51.841Z,4.80
2018-06-15T14:24:20.147Z,6.93
2018-06-15T14:26:48.627Z,4.73
2018-06-15T14:29:17.100Z,4.43
2018-06-15T14:31:45.380Z,5.43
2018-06-15T14:34:13.478Z,5.35
2018-06-15T14:36:41.617Z,5.83
2018-06-15T14:39:11.004Z,3.80
2018-06-15T14:41:39.107Z,4.10
2018-06-15T14:44:07.342Z,4.53
2018-06-15T14:46:37.199Z,4.50
2018-06-15T14:49:05.338Z,3.80
2018-06-15T14:51:33.444Z,4.00
2018-06-15T14:54:01.522Z,4.63
2018-06-15T14:56:29.618Z,4.43
2018-06-15T14:58:57.702Z,4.10
2018-06-15T15:01:25.869Z,4.13
2018-06-15T15:03:53.967Z,4.43
2018-06-15T15:06:22.059Z,4.57
2018-06-15T15:08:50.194Z,4.60
2018-06-15T15:11:18.286Z,3.73
2018-06-15T15:13:46.420Z,4.67
2018-06-15T15:16:14.578Z,4.20
2018-06-15T15:18:42.755Z,3.65
2018-06-15T15:21:10.863Z,4.30
2018-06-15T15:23:39.140Z,7.33
2018-06-15T15:26:07.378Z,3.50
2018-06-15T15:28:35.671Z,4.83
2018-06-15T15:31:03.823Z,4.10
2018-06-15T15:33:31.917Z,5.13
2018-06-15T15:35:59.991Z,4.30
2018-06-15T15:38:28.812Z,6.60
2018-06-15T15:40:57.008Z,5.20
2018-06-15T15:43:26.247Z,4.60
2018-06-15T15:45:54.467Z,7.70
2018-06-15T15:48:22.734Z,5.13
2018-06-15T15:50:53.260Z,5.57
2018-06-15T15:53:21.388Z,4.10
2018-06-15T15:55:49.526Z,4.90
2018-06-15T15:58:18.635Z,4.87
2018-06-15T16:00:46.722Z,13.00
2018-06-15T16:03:14.968Z,5.60
2018-06-15T16:05:43.051Z,5.80
2018-06-15T16:08:11.373Z,3.75
2018-06-15T16:10:39.493Z,5.37
2018-06-15T16:13:07.674Z,5.43
2018-06-15T16:15:36.964Z,4.13
2018-06-15T16:18:05.512Z,7.05
2018-06-15T16:20:33.683Z,10.25
2018-06-15T16:23:01.888Z,5.30
2018-06-15T16:25:30.087Z,5.40
2018-06-15T16:27:58.172Z,4.70
2018-06-15T16:30:26.310Z,6.10
2018-06-15T16:32:54.403Z,7.60
2018-06-15T16:35:22.499Z,5.70
2018-06-15T16:37:50.635Z,5.50
2018-06-15T16:40:18.789Z,8.90
2018-06-15T16:42:46.892Z,5.93
2018-06-15T16:45:14.994Z,5.10
2018-06-15T16:47:43.139Z,5.33
2018-06-15T16:50:11.240Z,5.58
2018-06-15T16:52:39.380Z,5.30
2018-06-15T16:55:07.447Z,6.03
2018-06-15T16:57:35.566Z,3.83
2018-06-15T17:00:03.887Z,4.87
2018-06-15T17:02:32.033Z,4.97
2018-06-15T17:05:00.113Z,4.43
2018-06-15T17:07:28.475Z,4.40
2018-06-15T17:09:56.600Z,4.03
2018-06-15T17:12:24.966Z,5.40
2018-06-15T17:14:53.071Z,4.37
2018-06-15T17:17:21.247Z,4.33
2018-06-15T17:19:49.489Z,5.00
2018-06-15T17:22:17.611Z,6.30
2018-06-15T17:24:45.679Z,8.60
2018-06-15T17:27:13.880Z,5.55
2018-06-15T17:29:41.947Z,6.53
2018-06-15T17:32:10.015Z,6.27
2018-06-15T17:34:38.165Z,4.57
2018-06-15T17:37:06.280Z,4.72
2018-06-15T17:39:34.591Z,5.25
2018-06-15T17:42:02.842Z,5.47
2018-06-15T17:44:34.166Z,6.30
2018-06-15T17:47:21.658Z,5.65
2018-06-15T17:49:51.962Z,5.80
2018-06-15T17:52:20.171Z,5.10
2018-06-15T17:54:48.458Z,5.87
2018-06-15T17:57:16.720Z,5.87
2018-06-15T17:59:44.977Z,7.07
2018-06-15T18:02:13.040Z,6.70
2018-06-15T18:04:41.118Z,7.17
2018-06-15T18:07:09.241Z,11.40
2018-06-15T18:09:38.219Z,6.60
2018-06-15T18:12:06.314Z,5.80
2018-06-15T18:14:34.499Z,5.30
2018-06-15T18:17:02.743Z,6.40
2018-06-15T18:19:30.802Z,5.20
2018-06-15T18:21:59.530Z,5.63
2018-06-15T18:24:27.757Z,4.80
2018-06-15T18:26:56.850Z,5.72
2018-06-15T18:29:25.184Z,6.00
2018-06-15T18:31:53.278Z,5.50
2018-06-15T18:34:21.386Z,5.00
2018-06-15T18:36:49.802Z,5.60
2018-06-15T18:39:17.946Z,5.80
2018-06-15T18:41:46.155Z,7.67
2018-06-15T18:44:14.560Z,6.63
2018-06-15T18:46:42.733Z,6.28
2018-06-15T18:49:11.011Z,5.97
2018-06-15T18:51:39.111Z,5.75
2018-06-15T18:54:07.476Z,6.33
2018-06-15T18:56:35.582Z,5.42
2018-06-15T18:59:03.766Z,6.10
2018-06-15T19:01:31.929Z,5.85
2018-06-15T19:04:00.099Z,6.07
2018-06-15T19:06:28.186Z,6.30
2018-06-15T19:08:57.047Z,6.83
2018-06-15T19:11:25.450Z,6.77
2018-06-15T19:13:53.610Z,7.17
2018-06-15T19:16:21.870Z,6.57
2018-06-15T19:18:50.004Z,5.93
2018-06-15T19:21:18.081Z,5.83
2018-06-15T19:23:46.187Z,6.83
2018-06-15T19:26:14.466Z,6.07
2018-06-15T19:28:42.732Z,6.07
2018-06-15T19:31:11.094Z,6.43
2018-06-15T19:33:39.210Z,6.83
2018-06-15T19:36:07.568Z,7.20
2018-06-15T19:38:35.926Z,6.57
2018-06-15T19:41:04.136Z,7.13
2018-06-15T19:43:32.269Z,6.87
2018-06-15T19:46:00.370Z,6.37
2018-06-15T19:48:28.481Z,8.57
2018-06-15T19:50:57.254Z,7.20
2018-06-15T19:53:25.515Z,6.70
2018-06-15T19:55:54.113Z,6.70
2018-06-15T19:58:22.256Z,6.30
2018-06-15T20:00:50.391Z,6.23
2018-06-15T20:03:17.521Z,6.50
2018-06-15T20:05:45.697Z,6.73
2018-06-15T20:08:13.975Z,6.67
2018-06-15T20:10:42.117Z,5.90
2018-06-15T20:13:10.215Z,6.97
2018-06-15T20:15:38.323Z,6.60
2018-06-15T20:18:06.471Z,6.53
2018-06-15T20:20:34.606Z,6.90
2018-06-15T20:23:02.692Z,6.97
2018-06-15T20:25:30.990Z,6.50
2018-06-15T20:27:59.070Z,6.17
2018-06-15T20:30:27.935Z,6.07
2018-06-15T20:32:58.202Z,7.00
2018-06-15T20:35:26.423Z,6.80
2018-06-15T20:37:55.212Z,6.77
2018-06-15T20:40:23.335Z,7.40
2018-06-15T20:42:51.399Z,8.10
2018-06-15T20:45:19.465Z,6.87
2018-06-15T20:47:47.664Z,7.13
2018-06-15T20:50:15.793Z,7.33
2018-06-15T20:52:43.855Z,6.95
2018-06-15T20:55:11.958Z,9.10
2018-06-15T20:57:40.264Z,7.00
2018-06-15T21:00:08.365Z,7.70
2018-06-15T21:02:36.445Z,7.17
2018-06-15T21:05:04.602Z,7.63
2018-06-15T21:07:32.715Z,7.12
2018-06-15T21:10:00.842Z,7.43
2018-06-15T21:12:28.926Z,10.30
2018-06-15T21:14:57.916Z,12.43
2018-06-15T21:17:26.100Z,8.13
2018-06-15T21:19:54.313Z,7.87
2018-06-15T21:22:22.714Z,7.77
2018-06-15T21:24:50.816Z,7.50
2018-06-15T21:27:18.890Z,7.77
2018-06-15T21:29:47.003Z,8.33
2018-06-15T21:32:15.646Z,7.97
2018-06-15T21:34:43.829Z,8.43
2018-06-15T21:37:12.119Z,7.80
2018-06-15T21:39:40.208Z,7.00
2018-06-15T21:42:08.315Z,7.73
2018-06-15T21:44:36.496Z,7.10
2018-06-15T21:47:04.892Z,7.03
2018-06-15T21:49:32.976Z,7.30
2018-06-15T21:52:01.183Z,7.10
2018-06-15T21:54:29.300Z,7.70
2018-06-15T21:56:58.141Z,7.37
2018-06-15T21:59:26.338Z,8.20
2018-06-15T22:01:54.671Z,8.00
2018-06-15T22:04:22.761Z,7.07
2018-06-15T22:06:50.830Z,8.93
2018-06-15T22:09:18.901Z,8.73
2018-06-15T22:11:46.983Z,8.40
2018-06-15T22:14:17.479Z,17.00
2018-06-15T22:16:50.505Z,18.27
2018-06-15T22:19:20.850Z,9.57
2018-06-15T22:21:49.270Z,10.17
2018-06-15T22:24:17.370Z,8.60
2018-06-15T22:26:45.807Z,8.60
2018-06-15T22:29:13.939Z,9.17
2018-06-15T22:31:42.004Z,8.93
2018-06-15T22:34:10.271Z,9.80
2018-06-15T22:36:38.484Z,9.20
2018-06-15T22:39:14.619Z,9.06
2018-06-15T22:41:50.006Z,9.20
2018-06-15T22:44:19.122Z,8.98
2018-06-15T22:46:47.230Z,10.10
2018-06-15T22:49:15.358Z,10.32
2018-06-15T22:51:43.835Z,10.07
2018-06-15T22:54:11.952Z,10.83
2018-06-15T22:56:40.151Z,10.03
2018-06-15T22:59:08.322Z,10.45
2018-06-15T23:01:36.551Z,9.75
2018-06-15T23:04:04.719Z,9.45
2018-06-15T23:06:32.923Z,9.48
2018-06-15T23:09:01.931Z,12.57
2018-06-15T23:11:30.031Z,27.83
2018-06-15T23:13:59.552Z,11.20
2018-06-15T23:16:28.695Z,10.07
2018-06-15T23:18:56.986Z,10.50
2018-06-15T23:21:25.137Z,10.00
2018-06-15T23:23:53.931Z,11.13
2018-06-15T23:26:22.355Z,10.40
2018-06-15T23:28:50.679Z,10.50
2018-06-15T23:31:19.948Z,10.77
2018-06-15T23:33:48.259Z,10.57
2018-06-15T23:36:16.616Z,10.43
2018-06-15T23:38:44.786Z,10.73
2018-06-15T23:41:12.905Z,10.75
2018-06-15T23:43:41.044Z,10.60
2018-06-15T23:46:09.181Z,11.80
2018-06-15T23:48:37.380Z,10.80
2018-06-15T23:51:06.429Z,10.30
2018-06-15T23:53:35.510Z,10.15
2018-06-15T23:56:03.622Z,11.07
2018-06-15T23:58:31.782Z,9.40
